sensor_id;sensor_type;location;lat;lon;timestamp;pressure;altitude;pressure_sealevel;temperature;humidity
20111;BME280;10216;42.658;23.248;2022-08-21T00:00:18;93238.03;;;18.06;100.00
20111;BME280;10216;42.658;23.248;2022-08-21T00:02:57;93237.88;;;18.01;100.00
20111;BME280;10216;42.658;23.248;2022-08-21T00:05:24;93238.56;;;17.97;100.00
20111;BME280;10216;42.658;23.248;2022-08-21T00:07:51;93237.31;;;17.99;100.00
20111;BME280;10216;42.658;23.248;2022-08-21T00:10:18;93230.53;;;17.98;100.00
20111;BME280;10216;42.658;23.248;2022-08-21T00:12:43;93232.34;;;17.98;100.00
20111;BME280;10216;42.658;23.248;2022-08-21T00:15:14;93229.97;;;17.96;100.00
20111;BME280;10216;42.658;23.248;2022-08-21T00:17:40;93227.81;;;17.93;100.00
20111;BME280;10216;42.658;23.248;2022-08-21T00:20:07;93219.56;;;17.96;100.00
20111;BME280;10216;42.658;23.248;2022-08-21T00:22:34;93220.38;;;17.97;100.00
20111;BME280;10216;42.658;23.248;2022-08-21T00:25:00;93209.06;;;17.91;100.00
20111;BME280;10216;42.658;23.248;2022-08-21T00:27:25;93214.25;;;17.91;100.00
20111;BME280;10216;42.658;23.248;2022-08-21T00:29:51;93216.63;;;17.92;100.00
20111;BME280;10216;42.658;23.248;2022-08-21T00:32:23;93216.06;;;17.90;100.00
20111;BME280;10216;42.658;23.248;2022-08-21T00:34:50;93211.97;;;17.83;100.00
20111;BME280;10216;42.658;23.248;2022-08-21T00:37:15;93209.59;;;17.81;100.00
20111;BME280;10216;42.658;23.248;2022-08-21T00:39:41;93213.97;;;17.81;100.00
20111;BME280;10216;42.658;23.248;2022-08-21T00:42:07;93215.78;;;17.80;100.00
20111;BME280;10216;42.658;23.248;2022-08-21T00:44:32;93213.97;;;17.81;100.00
20111;BME280;10216;42.658;23.248;2022-08-21T00:46:58;93213.63;;;17.77;100.00
20111;BME280;10216;42.658;23.248;2022-08-21T00:49:23;93221.66;;;17.76;100.00
20111;BME280;10216;42.658;23.248;2022-08-21T00:51:53;93225.81;;;17.77;100.00
20111;BME280;10216;42.658;23.248;2022-08-21T00:54:22;93221.78;;;17.81;100.00
20111;BME280;10216;42.658;23.248;2022-08-21T00:56:53;93211.03;;;17.77;100.00
20111;BME280;10216;42.658;23.248;2022-08-21T00:59:20;93206.06;;;17.76;100.00
20111;BME280;10216;42.658;23.248;2022-08-21T01:01:46;93207.19;;;17.80;100.00
20111;BME280;10216;42.658;23.248;2022-08-21T01:04:12;93216.56;;;17.81;100.00
20111;BME280;10216;42.658;23.248;2022-08-21T01:06:37;93212.97;;;17.82;100.00
20111;BME280;10216;42.658;23.248;2022-08-21T01:09:03;93206.41;;;17.79;100.00
20111;BME280;10216;42.658;23.248;2022-08-21T01:11:28;93196.09;;;17.73;100.00
20111;BME280;10216;42.658;23.248;2022-08-21T01:13:54;93199.75;;;17.72;100.00
20111;BME280;10216;42.658;23.248;2022-08-21T01:16:21;93196.09;;;17.73;100.00
20111;BME280;10216;42.658;23.248;2022-08-21T01:18:48;93184.59;;;17.69;100.00
20111;BME280;10216;42.658;23.248;2022-08-21T01:21:19;93188.06;;;17.63;100.00
20111;BME280;10216;42.658;23.248;2022-08-21T01:23:49;93193.31;;;17.56;100.00
20111;BME280;10216;42.658;23.248;2022-08-21T01:26:17;93190.72;;;17.56;100.00
20111;BME280;10216;42.658;23.248;2022-08-21T01:28:54;93183.16;;;17.54;100.00
20111;BME280;10216;42.658;23.248;2022-08-21T01:31:24;93181.22;;;17.50;100.00
20111;BME280;10216;42.658;23.248;2022-08-21T01:33:49;93186.03;;;17.46;100.00
20111;BME280;10216;42.658;23.248;2022-08-21T01:36:15;93188.06;;;17.44;100.00
20111;BME280;10216;42.658;23.248;2022-08-21T01:38:40;93192.53;;;17.37;100.00
20111;BME280;10216;42.658;23.248;2022-08-21T01:41:06;93191.09;;;17.41;100.00
20111;BME280;10216;42.658;23.248;2022-08-21T01:43:32;93200.91;;;17.39;100.00
20111;BME280;10216;42.658;23.248;2022-08-21T01:45:57;93201.31;;;17.36;100.00
20111;BME280;10216;42.658;23.248;2022-08-21T01:48:22;93200.59;;;17.29;100.00
20111;BME280;10216;42.658;23.248;2022-08-21T01:50:48;93196.59;;;17.33;100.00
20111;BME280;10216;42.658;23.248;2022-08-21T01:53:13;93185.03;;;17.29;100.00
20111;BME280;10216;42.658;23.248;2022-08-21T01:55:41;93173.88;;;17.29;100.00
20111;BME280;10216;42.658;23.248;2022-08-21T01:58:06;93188.06;;;17.26;100.00
20111;BME280;10216;42.658;23.248;2022-08-21T02:00:32;93192.69;;;17.24;100.00
20111;BME280;10216;42.658;23.248;2022-08-21T02:02:57;93199.88;;;17.22;100.00
20111;BME280;10216;42.658;23.248;2022-08-21T02:05:23;93200.47;;;17.24;100.00
20111;BME280;10216;42.658;23.248;2022-08-21T02:07:51;93203.50;;;17.21;100.00
20111;BME280;10216;42.658;23.248;2022-08-21T02:10:21;93199.75;;;17.17;100.00
20111;BME280;10216;42.658;23.248;2022-08-21T02:12:47;93199.53;;;17.18;100.00
20111;BME280;10216;42.658;23.248;2022-08-21T02:15:13;93199.75;;;17.17;100.00
20111;BME280;10216;42.658;23.248;2022-08-21T02:17:51;93200.75;;;17.16;100.00
20111;BME280;10216;42.658;23.248;2022-08-21T02:20:26;93212.59;;;17.12;100.00
20111;BME280;10216;42.658;23.248;2022-08-21T02:22:53;93212.44;;;17.07;100.00
20111;BME280;10216;42.658;23.248;2022-08-21T02:25:20;93204.44;;;17.08;100.00
20111;BME280;10216;42.658;23.248;2022-08-21T02:27:47;93205.66;;;17.06;100.00
20111;BME280;10216;42.658;23.248;2022-08-21T02:30:19;93207.47;;;17.05;100.00
20111;BME280;10216;42.658;23.248;2022-08-21T02:32:44;93208.09;;;17.01;100.00
20111;BME280;10216;42.658;23.248;2022-08-21T02:35:10;93210.53;;;16.96;100.00
20111;BME280;10216;42.658;23.248;2022-08-21T02:37:44;93213.78;;;16.91;100.00
20111;BME280;10216;42.658;23.248;2022-08-21T02:40:10;93221.19;;;16.88;100.00
20111;BME280;10216;42.658;23.248;2022-08-21T02:42:37;93223.78;;;16.88;100.00
20111;BME280;10216;42.658;23.248;2022-08-21T02:45:04;93222.63;;;16.84;100.00
20111;BME280;10216;42.658;23.248;2022-08-21T02:47:29;93219.59;;;16.87;100.00
20111;BME280;10216;42.658;23.248;2022-08-21T02:49:55;93225.38;;;16.89;100.00
20111;BME280;10216;42.658;23.248;2022-08-21T02:52:20;93217.19;;;16.92;100.00
20111;BME280;10216;42.658;23.248;2022-08-21T02:54:47;93207.38;;;16.94;100.00
20111;BME280;10216;42.658;23.248;2022-08-21T02:57:12;93205.56;;;16.94;100.00
20111;BME280;10216;42.658;23.248;2022-08-21T02:59:38;93215.72;;;16.96;100.00
20111;BME280;10216;42.658;23.248;2022-08-21T03:02:04;93217.53;;;16.95;100.00
20111;BME280;10216;42.658;23.248;2022-08-21T03:04:29;93218.91;;;16.98;100.00
20111;BME280;10216;42.658;23.248;2022-08-21T03:06:55;93219.31;;;16.95;100.00
20111;BME280;10216;42.658;23.248;2022-08-21T03:09:20;93217.31;;;16.97;100.00
20111;BME280;10216;42.658;23.248;2022-08-21T03:11:45;93208.53;;;16.98;100.00
20111;BME280;10216;42.658;23.248;2022-08-21T03:14:11;93217.75;;;16.94;100.00
20111;BME280;10216;42.658;23.248;2022-08-21T03:16:37;93220.34;;;16.94;100.00
20111;BME280;10216;42.658;23.248;2022-08-21T03:19:02;93220.56;;;16.92;100.00
20111;BME280;10216;42.658;23.248;2022-08-21T03:21:28;93224.72;;;16.93;100.00
20111;BME280;10216;42.658;23.248;2022-08-21T03:23:53;93219.78;;;16.92;100.00
20111;BME280;10216;42.658;23.248;2022-08-21T03:26:19;93219.19;;;16.90;100.00
20111;BME280;10216;42.658;23.248;2022-08-21T03:28:44;93216.00;;;16.88;100.00
20111;BME280;10216;42.658;23.248;2022-08-21T03:31:10;93209.41;;;16.92;100.00
20111;BME280;10216;42.658;23.248;2022-08-21T03:33:35;93208.59;;;16.91;100.00
20111;BME280;10216;42.658;23.248;2022-08-21T03:36:05;93204.78;;;16.94;100.00
20111;BME280;10216;42.658;23.248;2022-08-21T03:38:33;93203.34;;;16.98;100.00
20111;BME280;10216;42.658;23.248;2022-08-21T03:40:59;93202.75;;;16.96;100.00
20111;BME280;10216;42.658;23.248;2022-08-21T03:43:25;93208.97;;;16.95;100.00
20111;BME280;10216;42.658;23.248;2022-08-21T03:45:51;93210.53;;;16.96;100.00
20111;BME280;10216;42.658;23.248;2022-08-21T03:48:17;93208.75;;;16.96;100.00
20111;BME280;10216;42.658;23.248;2022-08-21T03:50:43;93217.38;;;16.90;100.00
20111;BME280;10216;42.658;23.248;2022-08-21T03:53:13;93221.25;;;16.81;100.00
20111;BME280;10216;42.658;23.248;2022-08-21T03:55:41;93223.25;;;16.79;100.00
20111;BME280;10216;42.658;23.248;2022-08-21T03:58:07;93217.13;;;16.73;100.00
20111;BME280;10216;42.658;23.248;2022-08-21T04:00:33;93223.59;;;16.64;100.00
20111;BME280;10216;42.658;23.248;2022-08-21T04:02:59;93223.81;;;16.63;100.00
20111;BME280;10216;42.658;23.248;2022-08-21T04:05:25;93230.59;;;16.64;100.00
20111;BME280;10216;42.658;23.248;2022-08-21T04:08:03;93230.31;;;16.72;100.00
20111;BME280;10216;42.658;23.248;2022-08-21T04:10:31;93237.59;;;16.82;100.00
20111;BME280;10216;42.658;23.248;2022-08-21T04:12:57;93241.00;;;16.82;100.00
20111;BME280;10216;42.658;23.248;2022-08-21T04:15:23;93236.19;;;16.86;100.00
20111;BME280;10216;42.658;23.248;2022-08-21T04:17:49;93231.16;;;16.91;100.00
20111;BME280;10216;42.658;23.248;2022-08-21T04:20:16;93230.09;;;16.98;100.00
20111;BME280;10216;42.658;23.248;2022-08-21T04:22:42;93226.97;;;17.08;100.00
20111;BME280;10216;42.658;23.248;2022-08-21T04:25:09;93226.34;;;17.12;100.00
20111;BME280;10216;42.658;23.248;2022-08-21T04:27:35;93231.25;;;17.21;100.00
20111;BME280;10216;42.658;23.248;2022-08-21T04:30:00;93224.19;;;17.28;100.00
20111;BME280;10216;42.658;23.248;2022-08-21T04:32:26;93229.72;;;17.31;100.00
20111;BME280;10216;42.658;23.248;2022-08-21T04:35:11;93228.59;;;17.27;100.00
20111;BME280;10216;42.658;23.248;2022-08-21T04:37:37;93226.41;;;17.24;100.00
20111;BME280;10216;42.658;23.248;2022-08-21T04:40:03;93223.09;;;17.17;100.00
20111;BME280;10216;42.658;23.248;2022-08-21T04:42:29;93220.94;;;17.14;100.00
20111;BME280;10216;42.658;23.248;2022-08-21T04:44:55;93218.63;;;17.06;100.00
20111;BME280;10216;42.658;23.248;2022-08-21T04:47:21;93226.47;;;17.17;100.00
20111;BME280;10216;42.658;23.248;2022-08-21T04:49:48;93229.00;;;17.24;100.00
20111;BME280;10216;42.658;23.248;2022-08-21T04:52:17;93227.59;;;17.28;100.00
20111;BME280;10216;42.658;23.248;2022-08-21T04:54:45;93224.38;;;17.44;100.00
20111;BME280;10216;42.658;23.248;2022-08-21T04:57:11;93219.06;;;17.58;100.00
20111;BME280;10216;42.658;23.248;2022-08-21T04:59:43;93220.06;;;17.75;100.00
20111;BME280;10216;42.658;23.248;2022-08-21T05:02:09;93229.13;;;17.84;100.00
20111;BME280;10216;42.658;23.248;2022-08-21T05:04:41;93227.34;;;17.84;100.00
20111;BME280;10216;42.658;23.248;2022-08-21T05:07:12;93229.25;;;17.89;100.00
20111;BME280;10216;42.658;23.248;2022-08-21T05:09:40;93234.50;;;18.01;100.00
20111;BME280;10216;42.658;23.248;2022-08-21T05:12:06;93243.56;;;18.10;100.00
20111;BME280;10216;42.658;23.248;2022-08-21T05:14:32;93241.91;;;18.15;100.00
20111;BME280;10216;42.658;23.248;2022-08-21T05:16:58;93235.50;;;18.29;100.00
20111;BME280;10216;42.658;23.248;2022-08-21T05:19:24;93237.31;;;18.29;100.00
20111;BME280;10216;42.658;23.248;2022-08-21T05:21:49;93238.53;;;18.26;100.00
20111;BME280;10216;42.658;23.248;2022-08-21T05:24:16;93233.81;;;18.35;100.00
20111;BME280;10216;42.658;23.248;2022-08-21T05:26:41;93232.81;;;18.36;100.00
20111;BME280;10216;42.658;23.248;2022-08-21T05:29:07;93234.38;;;18.37;100.00
20111;BME280;10216;42.658;23.248;2022-08-21T05:31:32;93235.63;;;18.46;100.00
20111;BME280;10216;42.658;23.248;2022-08-21T05:33:58;93235.25;;;18.61;100.00
20111;BME280;10216;42.658;23.248;2022-08-21T05:36:23;93227.78;;;18.76;100.00
20111;BME280;10216;42.658;23.248;2022-08-21T05:38:50;93229.50;;;18.94;100.00
20111;BME280;10216;42.658;23.248;2022-08-21T05:41:15;93220.31;;;19.03;100.00
20111;BME280;10216;42.658;23.248;2022-08-21T05:43:41;93227.22;;;19.21;100.00
20111;BME280;10216;42.658;23.248;2022-08-21T05:46:07;93215.19;;;19.31;100.00
20111;BME280;10216;42.658;23.248;2022-08-21T05:48:35;93218.47;;;19.38;100.00
20111;BME280;10216;42.658;23.248;2022-08-21T05:51:06;93212.28;;;19.28;100.00
20111;BME280;10216;42.658;23.248;2022-08-21T05:53:31;93224.16;;;19.12;100.00
20111;BME280;10216;42.658;23.248;2022-08-21T05:55:57;93225.53;;;19.03;100.00
20111;BME280;10216;42.658;23.248;2022-08-21T05:58:22;93225.31;;;19.04;100.00
20111;BME280;10216;42.658;23.248;2022-08-21T06:00:49;93226.53;;;19.02;100.00
20111;BME280;10216;42.658;23.248;2022-08-21T06:03:36;93230.50;;;19.04;100.00
20111;BME280;10216;42.658;23.248;2022-08-21T06:06:02;93222.38;;;19.01;100.00
20111;BME280;10216;42.658;23.248;2022-08-21T06:08:29;93227.00;;;18.99;100.00
20111;BME280;10216;42.658;23.248;2022-08-21T06:10:56;93220.91;;;19.05;100.00
20111;BME280;10216;42.658;23.248;2022-08-21T06:13:23;93227.22;;;19.21;100.00
20111;BME280;10216;42.658;23.248;2022-08-21T06:15:49;93226.56;;;19.14;100.00
20111;BME280;10216;42.658;23.248;2022-08-21T06:18:16;93219.41;;;19.21;100.00
20111;BME280;10216;42.658;23.248;2022-08-21T06:20:41;93228.91;;;19.27;100.00
20111;BME280;10216;42.658;23.248;2022-08-21T06:23:07;93223.81;;;19.20;100.00
20111;BME280;10216;42.658;23.248;2022-08-21T06:25:34;93219.84;;;19.18;100.00
20111;BME280;10216;42.658;23.248;2022-08-21T06:28:02;93211.25;;;19.29;100.00
20111;BME280;10216;42.658;23.248;2022-08-21T06:30:30;93213.03;;;19.40;100.00
20111;BME280;10216;42.658;23.248;2022-08-21T06:32:56;93216.34;;;19.35;100.00
20111;BME280;10216;42.658;23.248;2022-08-21T06:35:22;93221.06;;;19.38;100.00
20111;BME280;10216;42.658;23.248;2022-08-21T06:37:50;93228.09;;;19.49;100.00
20111;BME280;10216;42.658;23.248;2022-08-21T06:40:16;93226.88;;;19.52;100.00
20111;BME280;10216;42.658;23.248;2022-08-21T06:42:41;93231.16;;;19.58;100.00
20111;BME280;10216;42.658;23.248;2022-08-21T06:45:07;93224.44;;;19.62;100.00
20111;BME280;10216;42.658;23.248;2022-08-21T06:47:32;93218.44;;;19.73;100.00
20111;BME280;10216;42.658;23.248;2022-08-21T06:49:57;93232.59;;;19.66;100.00
20111;BME280;10216;42.658;23.248;2022-08-21T06:52:23;93223.31;;;19.98;100.00
20111;BME280;10216;42.658;23.248;2022-08-21T06:54:48;93222.50;;;20.26;100.00
20111;BME280;10216;42.658;23.248;2022-08-21T06:57:15;93232.38;;;20.52;100.00
20111;BME280;10216;42.658;23.248;2022-08-21T06:59:40;93231.06;;;21.05;100.00
20111;BME280;10216;42.658;23.248;2022-08-21T07:02:06;93231.47;;;21.52;97.37
20111;BME280;10216;42.658;23.248;2022-08-21T07:04:31;93235.06;;;21.90;94.84
20111;BME280;10216;42.658;23.248;2022-08-21T07:06:57;93242.59;;;22.08;92.04
20111;BME280;10216;42.658;23.248;2022-08-21T07:09:22;93244.16;;;22.04;90.60
20111;BME280;10216;42.658;23.248;2022-08-21T07:11:51;93243.56;;;22.24;90.41
20111;BME280;10216;42.658;23.248;2022-08-21T07:14:17;93249.88;;;22.54;89.11
20111;BME280;10216;42.658;23.248;2022-08-21T07:16:42;93242.78;;;22.55;87.38
20111;BME280;10216;42.658;23.248;2022-08-21T07:19:07;93243.34;;;22.57;84.47
20111;BME280;10216;42.658;23.248;2022-08-21T07:21:33;93240.97;;;22.82;85.81
20111;BME280;10216;42.658;23.248;2022-08-21T07:23:58;93245.53;;;22.70;84.60
20111;BME280;10216;42.658;23.248;2022-08-21T07:26:24;93250.25;;;23.00;84.39
20111;BME280;10216;42.658;23.248;2022-08-21T07:28:51;93248.66;;;22.99;83.17
20111;BME280;10216;42.658;23.248;2022-08-21T07:31:20;93241.34;;;22.96;83.02
20111;BME280;10216;42.658;23.248;2022-08-21T07:33:46;93236.00;;;22.86;82.61
20111;BME280;10216;42.658;23.248;2022-08-21T07:36:12;93236.13;;;22.69;82.42
20111;BME280;10216;42.658;23.248;2022-08-21T07:38:37;93220.16;;;22.39;83.10
20111;BME280;10216;42.658;23.248;2022-08-21T07:41:07;93219.25;;;21.79;85.04
20111;BME280;10216;42.658;23.248;2022-08-21T07:43:37;93217.06;;;21.50;86.19
20111;BME280;10216;42.658;23.248;2022-08-21T07:46:02;93223.31;;;21.49;86.54
20111;BME280;10216;42.658;23.248;2022-08-21T07:48:28;93217.03;;;21.45;87.30
20111;BME280;10216;42.658;23.248;2022-08-21T07:50:53;93211.09;;;21.32;88.83
20111;BME280;10216;42.658;23.248;2022-08-21T07:53:22;93212.22;;;21.36;90.18
20111;BME280;10216;42.658;23.248;2022-08-21T07:55:47;93217.22;;;21.60;91.37
20111;BME280;10216;42.658;23.248;2022-08-21T07:58:15;93225.81;;;22.26;88.04
20111;BME280;10216;42.658;23.248;2022-08-21T08:00:41;93224.41;;;23.09;87.41
20111;BME280;10216;42.658;23.248;2022-08-21T08:03:09;93225.25;;;23.61;81.82
20111;BME280;10216;42.658;23.248;2022-08-21T08:05:34;93236.28;;;23.73;79.58
20111;BME280;10216;42.658;23.248;2022-08-21T08:08:02;93232.63;;;23.69;77.06
20111;BME280;10216;42.658;23.248;2022-08-21T08:10:27;93225.81;;;23.73;76.91
20111;BME280;10216;42.658;23.248;2022-08-21T08:12:55;93223.91;;;23.59;80.28
20111;BME280;10216;42.658;23.248;2022-08-21T08:15:23;93225.06;;;23.88;78.35
20111;BME280;10216;42.658;23.248;2022-08-21T08:17:49;93220.88;;;23.92;77.31
20111;BME280;10216;42.658;23.248;2022-08-21T08:20:16;93222.22;;;24.00;76.73
20111;BME280;10216;42.658;23.248;2022-08-21T08:22:44;93217.47;;;23.87;76.47
20111;BME280;10216;42.658;23.248;2022-08-21T08:25:12;93226.66;;;23.89;77.13
20111;BME280;10216;42.658;23.248;2022-08-21T08:27:38;93227.94;;;23.82;76.76
20111;BME280;10216;42.658;23.248;2022-08-21T08:30:05;93218.66;;;23.54;76.52
20111;BME280;10216;42.658;23.248;2022-08-21T08:32:31;93221.66;;;23.83;79.09
20111;BME280;10216;42.658;23.248;2022-08-21T08:34:56;93220.78;;;24.80;76.47
20111;BME280;10216;42.658;23.248;2022-08-21T08:37:22;93219.91;;;25.65;71.19
20111;BME280;10216;42.658;23.248;2022-08-21T08:39:47;93230.41;;;26.30;68.53
20111;BME280;10216;42.658;23.248;2022-08-21T08:42:28;93225.38;;;26.38;68.59
20111;BME280;10216;42.658;23.248;2022-08-21T08:45:03;93229.25;;;25.97;65.80
20111;BME280;10216;42.658;23.248;2022-08-21T08:47:31;93228.09;;;25.49;68.76
20111;BME280;10216;42.658;23.248;2022-08-21T08:50:26;93225.53;;;25.28;70.93
20111;BME280;10216;42.658;23.248;2022-08-21T08:53:12;93227.09;;;24.64;71.77
20111;BME280;10216;42.658;23.248;2022-08-21T08:55:43;93218.69;;;24.46;69.46
20111;BME280;10216;42.658;23.248;2022-08-21T08:58:20;93215.53;;;24.44;73.62
20111;BME280;10216;42.658;23.248;2022-08-21T09:00:50;93211.34;;;24.84;69.53
20111;BME280;10216;42.658;23.248;2022-08-21T09:03:16;93208.19;;;25.12;69.87
20111;BME280;10216;42.658;23.248;2022-08-21T09:11:20;93203.25;;;26.39;64.77
20111;BME280;10216;42.658;23.248;2022-08-21T09:17:02;93208.66;;;26.58;60.20
20111;BME280;10216;42.658;23.248;2022-08-21T09:25:25;93200.78;;;26.92;64.38
20111;BME280;10216;42.658;23.248;2022-08-21T09:27:51;93190.19;;;26.63;62.40
20111;BME280;10216;42.658;23.248;2022-08-21T09:30:17;93187.97;;;26.75;62.56
20111;BME280;10216;42.658;23.248;2022-08-21T09:32:44;93188.38;;;27.45;60.93
20111;BME280;10216;42.658;23.248;2022-08-21T09:35:19;93186.34;;;28.65;56.45
20111;BME280;10216;42.658;23.248;2022-08-21T09:45:35;93175.22;;;26.15;62.74
20111;BME280;10216;42.658;23.248;2022-08-21T09:48:27;93175.22;;;25.55;62.47
20111;BME280;10216;42.658;23.248;2022-08-21T09:50:53;93169.72;;;25.47;64.35
20111;BME280;10216;42.658;23.248;2022-08-21T09:53:31;93174.94;;;25.67;65.32
20111;BME280;10216;42.658;23.248;2022-08-21T09:56:04;93175.56;;;25.34;62.07
20111;BME280;10216;42.658;23.248;2022-08-21T09:58:59;93177.09;;;25.45;64.91
20111;BME280;10216;42.658;23.248;2022-08-21T10:01:25;93168.91;;;25.61;61.64
20111;BME280;10216;42.658;23.248;2022-08-21T10:04:10;93167.44;;;25.99;62.40
20111;BME280;10216;42.658;23.248;2022-08-21T10:06:36;93162.25;;;26.96;62.50
20111;BME280;10216;42.658;23.248;2022-08-21T10:09:13;93174.63;;;27.96;57.46
20111;BME280;10216;42.658;23.248;2022-08-21T10:11:40;93166.19;;;28.37;59.44
20111;BME280;10216;42.658;23.248;2022-08-21T10:17:07;93158.47;;;27.07;59.41
20111;BME280;10216;42.658;23.248;2022-08-21T10:25:23;93147.63;;;30.16;52.22
20111;BME280;10216;42.658;23.248;2022-08-21T10:28:36;93152.72;;;30.93;51.15
20111;BME280;10216;42.658;23.248;2022-08-21T10:31:00;93143.59;;;30.05;51.77
20111;BME280;10216;42.658;23.248;2022-08-21T10:33:31;93135.34;;;29.43;51.85
20111;BME280;10216;42.658;23.248;2022-08-21T10:46:51;93133.59;;;35.13;41.74
20111;BME280;10216;42.658;23.248;2022-08-21T10:55:22;93127.09;;;35.02;41.12
20111;BME280;10216;42.658;23.248;2022-08-21T10:58:14;93126.84;;;36.25;40.57
20111;BME280;10216;42.658;23.248;2022-08-21T11:00:47;93126.69;;;36.46;38.83
20111;BME280;10216;42.658;23.248;2022-08-21T11:06:07;93114.47;;;36.73;39.08
20111;BME280;10216;42.658;23.248;2022-08-21T11:08:39;93108.50;;;37.54;39.15
20111;BME280;10216;42.658;23.248;2022-08-21T11:11:14;93104.09;;;38.28;36.15
20111;BME280;10216;42.658;23.248;2022-08-21T11:13:48;93094.47;;;38.27;33.66
20111;BME280;10216;42.658;23.248;2022-08-21T11:16:37;93096.81;;;38.10;34.02
20111;BME280;10216;42.658;23.248;2022-08-21T11:19:33;93101.00;;;37.76;38.02
20111;BME280;10216;42.658;23.248;2022-08-21T11:22:20;93100.09;;;38.57;36.16
20111;BME280;10216;42.658;23.248;2022-08-21T11:27:33;93102.31;;;39.36;36.66
20111;BME280;10216;42.658;23.248;2022-08-21T11:30:03;93090.56;;;38.60;37.21
20111;BME280;10216;42.658;23.248;2022-08-21T11:38:17;93094.19;;;40.04;34.62
20111;BME280;10216;42.658;23.248;2022-08-21T11:46:28;93086.78;;;36.81;36.30
20111;BME280;10216;42.658;23.248;2022-08-21T11:56:59;93072.13;;;33.44;42.26
20111;BME280;10216;42.658;23.248;2022-08-21T11:59:40;93078.81;;;32.31;44.97
20111;BME280;10216;42.658;23.248;2022-08-21T12:02:13;93066.28;;;31.79;45.87
20111;BME280;10216;42.658;23.248;2022-08-21T12:04:47;93050.22;;;31.28;46.05
20111;BME280;10216;42.658;23.248;2022-08-21T12:07:36;93053.31;;;30.82;47.33
20111;BME280;10216;42.658;23.248;2022-08-21T12:10:07;93042.81;;;30.23;48.48
20111;BME280;10216;42.658;23.248;2022-08-21T12:12:36;93040.59;;;29.45;48.56
20111;BME280;10216;42.658;23.248;2022-08-21T12:17:57;93047.88;;;28.33;52.50
20111;BME280;10216;42.658;23.248;2022-08-21T12:23:04;93043.47;;;27.78;55.31
20111;BME280;10216;42.658;23.248;2022-08-21T12:25:43;93047.09;;;27.63;56.99
20111;BME280;10216;42.658;23.248;2022-08-21T12:28:12;93040.69;;;27.45;58.31
20111;BME280;10216;42.658;23.248;2022-08-21T12:30:42;93046.50;;;27.24;58.17
20111;BME280;10216;42.658;23.248;2022-08-21T12:35:43;93045.84;;;26.94;59.69
20111;BME280;10216;42.658;23.248;2022-08-21T12:38:21;93039.94;;;26.73;60.04
20111;BME280;10216;42.658;23.248;2022-08-21T12:41:01;93042.78;;;26.53;62.24
20111;BME280;10216;42.658;23.248;2022-08-21T12:43:33;93039.38;;;26.19;58.88
20111;BME280;10216;42.658;23.248;2022-08-21T12:45:59;93040.72;;;26.16;61.16
20111;BME280;10216;42.658;23.248;2022-08-21T12:48:48;93037.25;;;25.92;61.04
20111;BME280;10216;42.658;23.248;2022-08-21T12:51:18;93042.22;;;25.93;63.91
20111;BME280;10216;42.658;23.248;2022-08-21T12:53:55;93036.66;;;25.61;62.19
20111;BME280;10216;42.658;23.248;2022-08-21T12:56:24;93032.19;;;25.51;64.62
20111;BME280;10216;42.658;23.248;2022-08-21T12:58:54;93033.44;;;25.20;64.80
20111;BME280;10216;42.658;23.248;2022-08-21T13:01:38;93034.34;;;24.80;65.72
20111;BME280;10216;42.658;23.248;2022-08-21T13:04:14;93033.03;;;24.72;68.63
20111;BME280;10216;42.658;23.248;2022-08-21T13:06:47;93026.53;;;24.55;67.79
20111;BME280;10216;42.658;23.248;2022-08-21T13:09:16;93025.19;;;24.57;69.88
20111;BME280;10216;42.658;23.248;2022-08-21T13:11:45;93033.31;;;24.66;70.14
20111;BME280;10216;42.658;23.248;2022-08-21T13:16:46;93029.59;;;24.87;71.61
20111;BME280;10216;42.658;23.248;2022-08-21T13:19:17;93018.00;;;25.03;69.40
20111;BME280;10216;42.658;23.248;2022-08-21T13:21:44;93011.03;;;25.33;67.50
20111;BME280;10216;42.658;23.248;2022-08-21T13:26:44;93014.38;;;26.21;65.24
20111;BME280;10216;42.658;23.248;2022-08-21T13:29:12;93004.88;;;26.78;63.96
20111;BME280;10216;42.658;23.248;2022-08-21T13:31:39;92996.28;;;28.55;58.44
20111;BME280;10216;42.658;23.248;2022-08-21T13:34:08;92996.66;;;29.94;51.39
20111;BME280;10216;42.658;23.248;2022-08-21T13:36:39;93011.22;;;30.89;50.04
20111;BME280;10216;42.658;23.248;2022-08-21T13:39:08;93015.03;;;30.43;48.99
20111;BME280;10216;42.658;23.248;2022-08-21T13:41:36;93021.69;;;30.63;48.43
20111;BME280;10216;42.658;23.248;2022-08-21T13:46:56;93008.38;;;30.01;49.91
20111;BME280;10216;42.658;23.248;2022-08-21T13:49:29;93001.28;;;30.41;52.26
20111;BME280;10216;42.658;23.248;2022-08-21T13:51:55;93001.41;;;30.58;49.32
20111;BME280;10216;42.658;23.248;2022-08-21T13:54:38;93000.38;;;30.77;49.61
20111;BME280;10216;42.658;23.248;2022-08-21T13:57:16;92996.41;;;30.04;51.88
20111;BME280;10216;42.658;23.248;2022-08-21T13:59:42;93004.25;;;29.37;53.10
20111;BME280;10216;42.658;23.248;2022-08-21T14:02:13;93000.63;;;28.32;55.05
20111;BME280;10216;42.658;23.248;2022-08-21T14:04:54;93006.34;;;27.50;56.27
20111;BME280;10216;42.658;23.248;2022-08-21T14:07:31;92997.59;;;26.94;60.01
20111;BME280;10216;42.658;23.248;2022-08-21T14:10:04;92994.25;;;26.59;61.19
20111;BME280;10216;42.658;23.248;2022-08-21T14:12:52;92991.47;;;26.22;63.96
20111;BME280;10216;42.658;23.248;2022-08-21T14:15:26;93002.38;;;25.76;65.08
20111;BME280;10216;42.658;23.248;2022-08-21T14:17:53;92997.69;;;25.68;63.60
20111;BME280;10216;42.658;23.248;2022-08-21T14:20:31;92993.84;;;25.45;65.43
20111;BME280;10216;42.658;23.248;2022-08-21T14:22:57;92994.59;;;25.12;69.11